^^
Datos históricos de la estación: Murcia-Puente Tocinos
Diario Informe para Mayo 18, 2019 Unidades:  Ingés    Métrico   Ambas
Diario Semanal Mensual Anual
  Máxima: Mínima: Promedio:
Temperatura: 99 °F 72.7 °F 84.6 °F
Punto de rocio: 72.7 °F 52.3 °F 63.7 °F
Humedad: 87% 21.6% 53%
Velocidad viento: 11.2mph 0mph 4.9mph
Racha viento: 21mph - -
Viento- - Este
Presión: 29.9 in 29.8 in -
Precipitación: 0 in    
 
 
Tabla de datos para Mayo 18, 2019
Hora Temperatura Punto de rocio Presión Viento Velocidad viento Racha viento Humedad Intensidad lluvia(por hora) Nubes
00:04 79 °F 70.9 °F 29.9 in NNE 5.4 mph 8.1 mph 76.1% 0 in
00:09 78.8 °F 70.9 °F 29.9 in NNE 5.2 mph 7 mph 77% 0 in
00:14 78.6 °F 71.1 °F 29.9 in NNE 4.7 mph 8.1 mph 77.8% 0 in
00:19 78.4 °F 71.2 °F 29.9 in NNE 4.7 mph 8 mph 78.6% 0 in
00:24 78.4 °F 71.6 °F 29.9 in NNE 4.7 mph 8.7 mph 79.3% 0 in
00:29 78.3 °F 71.8 °F 29.9 in NNE 4.8 mph 9.7 mph 80.5% 0 in
00:34 78.3 °F 72.1 °F 29.9 in NE 5.2 mph 10 mph 81.5% 0 in
00:39 78.1 °F 72.3 °F 29.9 in NE 5.3 mph 9 mph 82.4% 0 in
00:44 78.1 °F 72.3 °F 29.9 in NE 5.4 mph 8.1 mph 83% 0 in
00:49 77.7 °F 72.5 °F 29.9 in NNE 5.1 mph 8.1 mph 83.9% 0 in
00:54 77.7 °F 72.5 °F 29.9 in NNE 4.3 mph 7 mph 84.2% 0 in
00:59 77.5 °F 72.7 °F 29.9 in NNE 4.1 mph 7 mph 85% 0 in
01:04 77.5 °F 72.7 °F 29.9 in NE 3.6 mph 6 mph 85% 0 in
01:09 77.4 °F 72.5 °F 29.9 in NE 3.6 mph 6 mph 85% 0 in
01:14 77.4 °F 72.7 °F 29.9 in NE 3.6 mph 6.2 mph 85.9% 0 in
01:19 77.2 °F 72.7 °F 29.9 in ENE 3.7 mph 6 mph 86% 0 in
01:24 77.2 °F 72.7 °F 29.9 in NNE 4 mph 6 mph 86% 0 in
01:29 77 °F 72.5 °F 29.9 in NNE 3.7 mph 5.9 mph 86% 0 in
01:34 76.8 °F 72.3 °F 29.9 in NE 3.1 mph 6 mph 86% 0 in
01:39 76.6 °F 72.1 °F 29.9 in NNE 3.1 mph 6 mph 86% 0 in
01:44 76.6 °F 72.1 °F 29.9 in NE 3.1 mph 6 mph 86.1% 0 in
01:49 76.6 °F 72.1 °F 29.9 in North 2.9 mph 5.2 mph 86.4% 0 in
01:54 76.6 °F 72.5 °F 29.9 in NNO 2.4 mph 5 mph 87% 0 in
01:59 76.6 °F 72.5 °F 29.9 in North 2.2 mph 5.2 mph 87% 0 in
02:04 76.6 °F 72.5 °F 29.9 in North 2 mph 5 mph 87% 0 in
02:09 76.6 °F 72.5 °F 29.9 in NNE 2.1 mph 5 mph 87% 0 in
02:14 76.5 °F 72.3 °F 29.9 in NNE 2.4 mph 5 mph 87% 0 in
02:19 76.5 °F 72.3 °F 29.9 in NNE 2.5 mph 5 mph 87% 0 in
02:24 76.3 °F 72.1 °F 29.9 in NNE 2.9 mph 5.2 mph 87% 0 in
02:29 76.3 °F 72 °F 29.9 in NE 2.9 mph 5.2 mph 86.6% 0 in
02:34 76.1 °F 71.6 °F 29.9 in NNE 2.9 mph 5 mph 86% 0 in
02:39 75.9 °F 71.4 °F 29.9 in NE 2.6 mph 3.5 mph 86% 0 in
02:44 75.9 °F 71.1 °F 29.9 in Este 2 mph 3.5 mph 85.1% 0 in
02:49 75.7 °F 71.1 °F 29.9 in Este 1.5 mph 3 mph 85% 0 in
02:54 75.7 °F 70.7 °F 29.9 in Calm   1.4 mph 84.2% 0 in
02:59 75.7 °F 70.9 °F 29.9 in Calm   1 mph 84.8% 0 in
03:04 75.7 °F 70.9 °F 29.9 in Calm   2.9 mph 85% 0 in
03:09 75.7 °F 70.9 °F 29.9 in NE 0.4 mph 3 mph 84.7% 0 in
03:14 75.7 °F 70 °F 29.9 in NE 1.4 mph   82.4% 0 in
03:19 75.6 °F 70.2 °F 29.9 in NE 1 mph   83.5% 0 in
03:24 75.6 °F 69.8 °F 29.9 in Calm     82.3% 0 in
03:29 75.6 °F 69.3 °F 29.9 in Calm     81% 0 in
03:34 75.4 °F 68.5 °F 29.9 in Calm     79.3% 0 in
03:39 75.2 °F 68 °F 29.9 in Calm     78% 0 in
03:44 75.2 °F 67.8 °F 29.9 in Calm     78% 0 in
03:49 75.2 °F 67.8 °F 29.9 in Calm     77.8% 0 in
03:54 75.2 °F 67.6 °F 29.9 in Calm     77.4% 0 in
03:59 75.4 °F 67.6 °F 29.9 in Calm     76.9% 0 in
04:04 75 °F 64.8 °F 29.9 in Calm   4.7 mph 70.4% 0 in
04:09 74.5 °F 59.7 °F 29.9 in Este 0.7 mph 5 mph 60.2% 0 in
04:14 74.3 °F 58.6 °F 29.9 in Este 2.4 mph 5 mph 57.9% 0 in
04:19 74.5 °F 58.3 °F 29.9 in Este 2.2 mph 3.5 mph 57.1% 0 in
04:24 74.7 °F 58.3 °F 29.9 in Este 1.8 mph 1.4 mph 57.1% 0 in
04:29 74.7 °F 58.8 °F 29.9 in Este 1.3 mph 1.4 mph 57.9% 0 in
04:34 74.8 °F 59 °F 29.9 in Calm   2.9 mph 58% 0 in
04:39 74.8 °F 59.4 °F 29.9 in Calm   3 mph 58.6% 0 in
04:44 74.8 °F 57.7 °F 29.9 in Calm   4.6 mph 55.4% 0 in
04:49 74.7 °F 57 °F 29.9 in Este 0.6 mph 5 mph 54% 0 in
04:54 74.7 °F 56.7 °F 29.8 in Este 2 mph 4 mph 53.6% 0 in
04:59 74.5 °F 56.3 °F 29.8 in Este 1.8 mph 3 mph 53% 0 in
05:04 74.5 °F 56.3 °F 29.8 in Este 1.4 mph   53.3% 0 in
05:09 74.5 °F 56.3 °F 29.8 in Este 1 mph 2.3 mph 53.1% 0 in
05:14 74.5 °F 56.7 °F 29.8 in Calm   2.3 mph 54% 0 in
05:19 74.7 °F 56.5 °F 29.8 in Calm   3.5 mph 53.4% 0 in
05:24 74.7 °F 57.4 °F 29.8 in Calm   3.5 mph 54.7% 0 in
05:29 74.8 °F 58.1 °F 29.8 in Este 0.6 mph 3 mph 55.9% 0 in
05:34 74.8 °F 57.6 °F 29.8 in ENE 1.8 mph 3.6 mph 54.8% 0 in
05:39 74.7 °F 56.1 °F 29.8 in NE 1.9 mph 4.6 mph 52.3% 0 in
05:44 74.3 °F 55 °F 29.8 in NE 2 mph 5 mph 50.9% 0 in
05:49 74.1 °F 54.3 °F 29.8 in ENE 2 mph 5 mph 50.2% 0 in
05:54 74.1 °F 55 °F 29.8 in ENE 2 mph 4.6 mph 51.4% 0 in
05:59 74.1 °F 55.8 °F 29.8 in ENE 1.9 mph 5 mph 52.9% 0 in
06:04 74.1 °F 58.1 °F 29.8 in ENE 1.8 mph 3.5 mph 57.6% 0 in
06:09 74.1 °F 59.9 °F 29.8 in ENE 1.8 mph 3 mph 61.3% 0 in
06:14 74.3 °F 62.6 °F 29.8 in ENE 1.8 mph 3.5 mph 67% 0 in
06:19 74.1 °F 63.5 °F 29.8 in ENE 1.8 mph 3 mph 69.5% 0 in
06:24 73.9 °F 63.7 °F 29.8 in ENE 1.8 mph 2.4 mph 70.1% 0 in
06:29 73.8 °F 61.7 °F 29.8 in ENE 1.7 mph 3.6 mph 65.9% 0 in
06:34 73.6 °F 61.3 °F 29.8 in ENE 1.4 mph 4 mph 65.5% 0 in
06:39 73.6 °F 62.8 °F 29.8 in ENE 1.4 mph 2.4 mph 69.1% 0 in
06:44 73.4 °F 62.8 °F 29.8 in ENE 1.4 mph 2.3 mph 69.8% 0 in
06:49 73.2 °F 62.4 °F 29.8 in ENE 1 mph   69.3% 0 in
06:54 72.9 °F 61 °F 29.8 in Calm     66% 0 in
06:59 72.7 °F 60.1 °F 29.8 in Calm     64.4% 0 in
07:04 72.7 °F 59.2 °F 29.8 in Calm     62.6% 0 in
07:09 72.7 °F 58.8 °F 29.8 in Calm     62% 0 in
07:14 72.7 °F 58.6 °F 29.8 in Calm   3.6 mph 61.4% 0 in
07:19 72.9 °F 58.3 °F 29.8 in SE 0.4 mph 4.6 mph 60.4% 0 in
07:24 72.9 °F 58.3 °F 29.8 in SE 1.4 mph 5 mph 60% 0 in
07:29 73 °F 58.6 °F 29.8 in SE 1.6 mph 4.6 mph 60.7% 0 in
07:34 73.2 °F 59.4 °F 29.8 in SE 2 mph 5 mph 61.9% 0 in
07:39 73.2 °F 59.9 °F 29.8 in SE 2 mph 4 mph 62.9% 0 in
07:44 73.2 °F 60.4 °F 29.8 in SE 2 mph 3.6 mph 64.2% 0 in
07:49 73.4 °F 61.3 °F 29.8 in SE 2 mph 4 mph 66% 0 in
07:54 73.6 °F 62.2 °F 29.8 in SE 2 mph 4 mph 67.9% 0 in
07:59 73.8 °F 63 °F 29.8 in SE 1.8 mph 3 mph 69% 0 in
08:04 73.8 °F 63 °F 29.8 in SE 1.4 mph 2 mph 69% 0 in
08:09 73.9 °F 63.1 °F 29.8 in SSE 1 mph 3.6 mph 69% 0 in
08:14 74.1 °F 63 °F 29.8 in Calm   4 mph 68% 0 in
08:19 74.5 °F 63.5 °F 29.8 in SSE 0.6 mph 5 mph 69% 0 in
08:24 74.7 °F 63.7 °F 29.8 in SSO 2 mph 5.2 mph 68.7% 0 in
08:29 74.8 °F 63.5 °F 29.8 in SSO 2.2 mph 5.9 mph 67.8% 0 in
08:34 75.2 °F 63.5 °F 29.8 in SSO 2.9 mph 6.9 mph 67% 0 in
08:39 75.4 °F 63.7 °F 29.8 in SSO 3.3 mph 7 mph 67% 0 in
08:44 75.6 °F 63.7 °F 29.8 in Sur 4.3 mph 7 mph 67% 0 in
08:49 75.7 °F 63.9 °F 29.9 in SSO 4.2 mph 7.6 mph 67% 0 in
08:54 75.7 °F 64 °F 29.9 in SO 4 mph 8.1 mph 67% 0 in
08:59 76.1 °F 64.4 °F 29.9 in SSO 3.7 mph 6 mph 67.1% 0 in
09:04 76.5 °F 64.6 °F 29.9 in SSO 3.1 mph 6 mph 66.7% 0 in
09:09 76.6 °F 64.2 °F 29.9 in SSO 3.2 mph 6.2 mph 65.7% 0 in
09:14 76.8 °F 64.6 °F 29.9 in SSO 3.6 mph 6.2 mph 66% 0 in
09:19 77 °F 64.4 °F 29.9 in SSO 3.7 mph 6 mph 65.2% 0 in
09:24 77.2 °F 64.4 °F 29.9 in SSO 4 mph 6 mph 64.9% 0 in
09:29 77.4 °F 64 °F 29.9 in Oeste 3.7 mph 6 mph 63.3% 0 in
09:34 77.7 °F 63.3 °F 29.9 in OSO 3.1 mph 6.2 mph 61.4% 0 in
09:39 78.1 °F 63 °F 29.9 in Oeste 3.1 mph 6 mph 60% 0 in
09:44 78.3 °F 63 °F 29.9 in Oeste 3.1 mph 6 mph 59.2% 0 in
09:49 78.4 °F 63 °F 29.9 in OSO 3.2 mph 6.2 mph 59% 0 in
09:54 78.8 °F 63.3 °F 29.9 in OSO 3.6 mph 6 mph 59% 0 in
09:59 79.2 °F 63.1 °F 29.9 in SO 3.4 mph 6 mph 58.1% 0 in
10:04 79.7 °F 63.7 °F 29.9 in SO 2.9 mph 5 mph 58% 0 in
10:09 80.4 °F 63.5 °F 29.9 in OSO 2.5 mph 4.6 mph 56.5% 0 in
10:14 81 °F 63.9 °F 29.9 in SSO 1.8 mph 5.9 mph 56.1% 0 in
10:19 81.3 °F 64 °F 29.9 in OSO 1.9 mph 6 mph 55.8% 0 in
10:24 81.7 °F 63.5 °F 29.9 in Oeste 2 mph 5 mph 54.3% 0 in
10:29 81.9 °F 63.7 °F 29.9 in Oeste 2 mph 5 mph 54.3% 0 in
10:34 82 °F 63.9 °F 29.9 in OSO 2 mph 4.6 mph 54.1% 0 in
10:39 82.8 °F 64.2 °F 29.9 in SO 1.8 mph 5 mph 53.6% 0 in
10:44 82.9 °F 63.9 °F 29.9 in Sur 1.4 mph 5 mph 52.5% 0 in
10:49 83.3 °F 63.9 °F 29.9 in SO 1.7 mph 5 mph 52% 0 in
10:54 83.8 °F 63.5 °F 29.9 in Este 2.4 mph 5.9 mph 50.4% 0 in
10:59 84.4 °F 63.1 °F 29.9 in Este 2.4 mph 6 mph 48.9% 0 in
11:04 84.6 °F 62.8 °F 29.9 in ENE 2.4 mph 5.2 mph 48% 0 in
11:09 84.7 °F 62.2 °F 29.9 in NE 2.5 mph 5 mph 46.7% 0 in
11:14 85.3 °F 61.3 °F 29.9 in Este 2.9 mph 5 mph 44.7% 0 in
11:19 86 °F 61.7 °F 29.9 in NE 2.6 mph 4 mph 44.1% 0 in
11:24 86.9 °F 62.2 °F 29.9 in NNE 1.8 mph 6.4 mph 44% 0 in
11:29 86.9 °F 62.2 °F 29.9 in NNE 2.4 mph 7 mph 43.6% 0 in
11:34 86.7 °F 62.2 °F 29.9 in ENE 3.6 mph 6.2 mph 43.9% 0 in
11:39 86.9 °F 62.2 °F 29.9 in ENE 3.6 mph 6 mph 43.9% 0 in
11:44 87.3 °F 62.2 °F 29.9 in NE 3.6 mph 6.2 mph 43.2% 0 in
11:49 87.4 °F 62.1 °F 29.9 in NNE 3.7 mph 7.4 mph 42.7% 0 in
11:54 87.4 °F 61.5 °F 29.9 in NE 4 mph 8.1 mph 41.9% 0 in
11:59 87.8 °F 60.6 °F 29.9 in NE 4.2 mph 10.4 mph 40.2% 0 in
12:04 88.2 °F 60.8 °F 29.9 in NNE 4.7 mph 10 mph 40.1% 0 in
12:09 88.3 °F 61.2 °F 29.9 in NNE 4.8 mph 9.2 mph 40.3% 0 in
12:14 88.7 °F 61 °F 29.9 in NNE 5.2 mph 11.4 mph 39.6% 0 in
12:19 89.1 °F 61 °F 29.9 in NNE 5.3 mph 12 mph 39.3% 0 in
12:24 89.2 °F 61.2 °F 29.9 in NNE 5.4 mph 12 mph 39% 0 in
12:29 89.4 °F 61 °F 29.9 in NNE 5.7 mph 10.4 mph 38.6% 0 in
12:34 89.8 °F 61.5 °F 29.9 in NE 6.4 mph 10 mph 38.9% 0 in
12:39 90 °F 61.2 °F 29.9 in NNE 6.3 mph 10.4 mph 38.3% 0 in
12:44 90.1 °F 61.9 °F 29.9 in NE 6.2 mph 10 mph 39% 0 in
12:49 90.9 °F 63.1 °F 29.9 in NE 5.8 mph 10 mph 40% 0 in
12:54 91.8 °F 64 °F 29.8 in NE 4.7 mph 9.7 mph 40% 0 in
12:59 92.1 °F 64.8 °F 29.8 in NNE 4.9 mph 10.4 mph 40.6% 0 in
13:04 92.1 °F 64.6 °F 29.8 in NNE 5.4 mph 10.7 mph 40.5% 0 in
13:09 92.1 °F 64.4 °F 29.8 in NE 5.6 mph 11.5 mph 40% 0 in
13:14 92.1 °F 64.4 °F 29.8 in NNE 5.9 mph 12 mph 40% 0 in
13:19 92.5 °F 64.6 °F 29.8 in NE 5.9 mph 12.7 mph 39.8% 0 in
13:24 92.7 °F 64.2 °F 29.8 in NNE 5.9 mph 13 mph 39.1% 0 in
13:29 93.2 °F 64.8 °F 29.8 in NNE 6 mph 13 mph 39.2% 0 in
13:34 93.6 °F 65.5 °F 29.8 in NNE 6.2 mph 13 mph 39.8% 0 in
13:39 93.7 °F 65.8 °F 29.8 in NNE 6.5 mph 14 mph 39.9% 0 in
13:40 93.9 °F 65.8 °F 29.8 in NNE 7.3 mph 14 mph 40% 0 in
14:14 96.3 °F 64.2 °F 29.8 in SE 6.9 mph 14 mph 35% 0 in
14:19 96.3 °F 64.2 °F 29.8 in ESE 7.1 mph 17.3 mph 35.2% 0 in
14:24 96.1 °F 64.9 °F 29.8 in ESE 8.1 mph 17 mph 36.2% 0 in
14:29 96.3 °F 65.1 °F 29.8 in ESE 8.2 mph 16.3 mph 36.1% 0 in
14:34 95.9 °F 64 °F 29.8 in ESE 8.7 mph 17.5 mph 35.2% 0 in
14:39 95.7 °F 63.7 °F 29.8 in ESE 9.1 mph 17 mph 35% 0 in
14:44 96.1 °F 63 °F 29.8 in ESE 10.7 mph 18.4 mph 33.9% 0 in
14:49 96.1 °F 61.2 °F 29.8 in ESE 10.7 mph 18.4 mph 31.6% 0 in
14:54 96.1 °F 60.1 °F 29.8 in SE 10.7 mph 18.5 mph 30.4% 0 in
14:59 96.3 °F 60.6 °F 29.8 in SE 10.6 mph 20.7 mph 31% 0 in
15:04 96.4 °F 61.2 °F 29.8 in ESE 10.2 mph 21 mph 31.3% 0 in
15:09 96.3 °F 61.5 °F 29.8 in SE 10.1 mph 18.4 mph 31.7% 0 in
15:14 96.3 °F 61 °F 29.8 in ESE 9.7 mph 18.5 mph 31.4% 0 in
15:19 96.3 °F 61 °F 29.8 in SE 9.7 mph 19 mph 31.3% 0 in
15:24 96.4 °F 61 °F 29.8 in SE 9.7 mph 16.1 mph 31% 0 in
15:29 96.4 °F 61 °F 29.8 in SE 9.6 mph 15 mph 31.1% 0 in
15:34 96.8 °F 61.9 °F 29.8 in ESE 9.2 mph 17.3 mph 31.9% 0 in
15:39 96.8 °F 63.5 °F 29.8 in ESE 9.1 mph 17 mph 33.7% 0 in
15:44 96.6 °F 64.8 °F 29.8 in ESE 8.5 mph 17.8 mph 35.4% 0 in
15:49 96.3 °F 66.2 °F 29.8 in ESE 8.9 mph 18.4 mph 37.5% 0 in
15:54 96.1 °F 66.2 °F 29.8 in ESE 10.2 mph 18 mph 37.9% 0 in
15:59 96.1 °F 67.8 °F 29.8 in ESE 10.1 mph 16.1 mph 39.8% 0 in
16:04 96.1 °F 67.6 °F 29.8 in ESE 9.7 mph 17.5 mph 39.6% 0 in
16:09 96.1 °F 68.7 °F 29.8 in ESE 9.8 mph 19 mph 41.1% 0 in
16:14 96.3 °F 69.3 °F 29.8 in ESE 10.2 mph 19 mph 41.9% 0 in
16:19 96.3 °F 69.3 °F 29.8 in ESE 10.1 mph 16.3 mph 41.8% 0 in
16:24 96.1 °F 69.3 °F 29.8 in ESE 10 mph 18.4 mph 42% 0 in
16:29 96.3 °F 68.9 °F 29.8 in ESE 10.1 mph 18.4 mph 41.3% 0 in
16:34 96.3 °F 68.2 °F 29.8 in ESE 10.2 mph 18 mph 40.3% 0 in
16:39 96.4 °F 68.9 °F 29.8 in SE 10.3 mph 18.4 mph 40.9% 0 in
16:44 96.4 °F 67.8 °F 29.8 in SE 10.7 mph 20.7 mph 39.6% 0 in
16:49 96.4 °F 67.3 °F 29.8 in ESE 10.8 mph 21 mph 38.6% 0 in
16:54 96.8 °F 67.5 °F 29.8 in Este 11.2 mph 21 mph 38.7% 0 in
16:59 97.2 °F 66.4 °F 29.8 in ESE 10.5 mph 16 mph 36.8% 0 in
17:04 97.2 °F 65.7 °F 29.8 in ESE 8.5 mph 14 mph 35.7% 0 in
17:09 97.3 °F 64.9 °F 29.8 in SE 8.3 mph 18.4 mph 34.8% 0 in
17:14 97.5 °F 64.2 °F 29.8 in ESE 7.6 mph 18 mph 33.7% 0 in
17:19 97.7 °F 63.1 °F 29.8 in ESE 8.1 mph 17.3 mph 32.3% 0 in
17:24 97.9 °F 63.1 °F 29.8 in ESE 9.7 mph 16.1 mph 32.1% 0 in
17:29 98.1 °F 62.8 °F 29.8 in SE 9.6 mph 14 mph 31.6% 0 in
17:34 98.2 °F 62.2 °F 29.8 in SE 9.2 mph 14.7 mph 30.7% 0 in
17:39 98.4 °F 61.5 °F 29.8 in ESE 9.2 mph 15.2 mph 29.9% 0 in
17:44 98.4 °F 61.2 °F 29.8 in SE 9.2 mph 15 mph 29.5% 0 in
17:49 98.6 °F 60.8 °F 29.8 in ESE 9.1 mph 16.3 mph 29% 0 in
17:54 98.4 °F 60.4 °F 29.8 in SE 8.7 mph 16.1 mph 28.6% 0 in
17:59 98.4 °F 59.9 °F 29.8 in SE 8.8 mph 15 mph 28.2% 0 in
18:04 98.6 °F 59.7 °F 29.8 in ESE 9.2 mph 17.3 mph 28% 0 in
18:09 98.4 °F 59 °F 29.8 in ESE 9.2 mph 17.3 mph 27.2% 0 in
18:14 98.4 °F 57.7 °F 29.8 in Este 9.2 mph 15 mph 26.1% 0 in
18:19 98.6 °F 57.6 °F 29.8 in SE 8.9 mph 14 mph 25.8% 0 in
18:24 99 °F 56.8 °F 29.8 in SE 8.1 mph 16.1 mph 25% 0 in
18:29 99 °F 56.1 °F 29.8 in ESE 8.2 mph 16 mph 24.2% 0 in
18:34 98.8 °F 55.8 °F 29.8 in ESE 8.5 mph 17.5 mph 24.1% 0 in
18:39 98.4 °F 55.2 °F 29.8 in ESE 8.9 mph 17 mph 23.9% 0 in
18:44 98.4 °F 54.3 °F 29.8 in ESE 10.7 mph 16.1 mph 23% 0 in
18:49 98.4 °F 54.1 °F 29.8 in ESE 10.4 mph 15.2 mph 23% 0 in
18:54 98.4 °F 53.6 °F 29.8 in SE 9.7 mph 18.4 mph 22.5% 0 in
18:59 98.4 °F 53.1 °F 29.8 in SE 9.8 mph 20.7 mph 22% 0 in
19:04 98.2 °F 52.3 °F 29.8 in SE 10.2 mph 21 mph 21.6% 0 in
19:09 98.2 °F 52.9 °F 29.8 in ESE 10.1 mph 16.1 mph 22% 0 in
19:14 98.1 °F 52.7 °F 29.8 in ESE 9.7 mph 16.1 mph 22% 0 in
19:19 97.9 °F 52.5 °F 29.8 in SE 9.4 mph 16 mph 22% 0 in
19:24 97.9 °F 55.2 °F 29.8 in SE 8.5 mph 13 mph 24.3% 0 in
19:29 97.5 °F 56.8 °F 29.8 in SE 8.3 mph 14 mph 26% 0 in
19:34 97.3 °F 56.8 °F 29.8 in SE 7.4 mph 14 mph 26.2% 0 in
19:39 97 °F 56.3 °F 29.8 in SE 7.3 mph 14 mph 26% 0 in
19:44 96.6 °F 56.1 °F 29.8 in SE 6.9 mph 13.5 mph 26% 0 in
19:49 96.4 °F 56.8 °F 29.8 in SE 6.8 mph 14 mph 26.8% 0 in
19:54 96.3 °F 55.8 °F 29.8 in SE 6.4 mph 11.5 mph 26% 0 in
19:59 96.1 °F 55.8 °F 29.8 in SE 6 mph 12 mph 26% 0 in
20:04 95.9 °F 55.8 °F 29.8 in SSE 4.7 mph 8 mph 26.2% 0 in
20:09 95.7 °F 55.4 °F 29.8 in SSE 4.5 mph 7.4 mph 26.1% 0 in
20:14 95.5 °F 55.2 °F 29.8 in SE 4 mph 8.5 mph 26% 0 in
20:19 95.5 °F 56.1 °F 29.8 in SSE 4.1 mph 9.2 mph 26.9% 0 in
20:24 95.4 °F 55.9 °F 29.8 in ESE 4.3 mph 9 mph 27% 0 in
20:29 95.2 °F 55.9 °F 29.8 in ESE 4.4 mph 9.2 mph 27.1% 0 in
20:34 94.8 °F 56.7 °F 29.8 in ENE 4.7 mph 9 mph 28% 0 in
20:39 94.6 °F 57 °F 29.8 in NNO 4.1 mph 5 mph 28.6% 0 in
20:44 94.3 °F 61.2 °F 29.8 in North 2 mph 10.4 mph 33.5% 0 in
20:49 92.7 °F 61.5 °F 29.8 in NE 2.9 mph 12.7 mph 35.6% 0 in
20:54 91.4 °F 61 °F 29.8 in NE 5.9 mph 13 mph 36.4% 0 in
20:59 90.7 °F 60.4 °F 29.8 in NE 6.2 mph 13 mph 36.5% 0 in
21:04 90.1 °F 60.4 °F 29.8 in NE 6.9 mph 13.8 mph 36.9% 0 in
21:09 89.8 °F 60.8 °F 29.8 in NE 7.1 mph 14 mph 38% 0 in
21:14 89.2 °F 60.8 °F 29.8 in NNE 7.6 mph 13 mph 38.7% 0 in
21:19 89.1 °F 61.5 °F 29.8 in NNE 7.3 mph 12 mph 39.9% 0 in
21:24 88.3 °F 62.1 °F 29.8 in NE 6.2 mph 10 mph 41.6% 0 in
21:29 87.8 °F 63 °F 29.8 in NNE 6.2 mph 11.5 mph 43.8% 0 in
21:34 86.9 °F 64 °F 29.8 in NNE 6.4 mph 13.8 mph 46.8% 0 in
21:39 86 °F 64.8 °F 29.8 in NNE 6.8 mph 14 mph 49% 0 in
21:44 85.5 °F 65.3 °F 29.8 in NE 8.1 mph 12 mph 50.9% 0 in
21:49 85.1 °F 65.5 °F 29.8 in NE 8 mph 13 mph 52% 0 in
21:54 84.7 °F 65.7 °F 29.8 in NNE 7.6 mph 13.8 mph 52.8% 0 in
21:59 84.4 °F 65.8 °F 29.8 in NE 7.8 mph 14 mph 54.1% 0 in
22:04 83.8 °F 66 °F 29.8 in NE 8.5 mph 13 mph 55% 0 in
22:09 83.8 °F 66 °F 29.8 in NNE 8.3 mph 13 mph 55.3% 0 in
22:14 83.7 °F 66.4 °F 29.8 in NNE 7.4 mph 13 mph 56% 0 in
22:19 83.7 °F 66.2 °F 29.8 in NE 7.5 mph 12.3 mph 56.1% 0 in
22:24 83.3 °F 66.6 °F 29.8 in NNE 7.6 mph 13 mph 57% 0 in
22:29 83.1 °F 66.6 °F 29.8 in NNE 7.6 mph 13 mph 57.7% 0 in
22:34 82.9 °F 66.6 °F 29.8 in NE 7.6 mph 13 mph 58% 0 in
22:39 82.8 °F 66.6 °F 29.8 in NE 7.6 mph 13 mph 58% 0 in
22:44 82.6 °F 67.1 °F 29.8 in NNE 7.6 mph 12 mph 59.5% 0 in
22:49 82.4 °F 67.6 °F 29.8 in NE 7.6 mph 12.7 mph 61.1% 0 in
22:54 82.2 °F 68.2 °F 29.8 in NNE 7.4 mph 13 mph 62.5% 0 in
22:59 82 °F 68.7 °F 29.8 in NE 7.4 mph 13 mph 64.1% 0 in
23:04 82 °F 69.6 °F 29.8 in NE 7.4 mph 12 mph 66.1% 0 in
23:09 81.9 °F 69.8 °F 29.8 in NNE 7.4 mph 12 mph 67.3% 0 in
23:14 81.7 °F 70.3 °F 29.8 in NNE 7.4 mph 12 mph 68.5% 0 in
23:19 81.7 °F 70.7 °F 29.8 in NNE 7.1 mph 9.2 mph 69.8% 0 in
23:24 81.3 °F 71.1 °F 29.8 in NNE 5.9 mph 11.2 mph 70.9% 0 in
23:29 81.3 °F 71.6 °F 29.8 in NNE 6 mph 12 mph 72.5% 0 in
23:34 81.1 °F 72 °F 29.8 in NNE 6.4 mph 10.7 mph 73.6% 0 in
23:39 81 °F 72.1 °F 29.8 in NNE 6.3 mph 11 mph 74.6% 0 in
23:44 81 °F 72.1 °F 29.8 in NNE 6.2 mph 10.4 mph 75% 0 in
23:49 80.8 °F 72.3 °F 29.8 in NE 6.2 mph 10.2 mph 75.7% 0 in
23:54 80.4 °F 72.3 °F 29.8 in NNE 5.9 mph 10.4 mph 76.2% 0 in
23:59 80.4 °F 72.5 °F 29.8 in NNE 5.9 mph 9.2 mph 77% 0 in
Murcia-Puente Tocinos, España
Compliments of Weather Underground - 3 mb

La estación de MeteoMurcia.com, publica sus datos en los siguientes proyectos:

Weather Underground PWS IMURCIAP2 Meteoclimatic www.awekas.at

W3Counter
Web Analytics